Claverack, New York
Current Conditions -  °F | °C
As of 6:54 AM on Saturday 20 Dec 2014 (Local Time) from KPSF Reporting Station
Overcast Overcast  
Wind Chill: 12°   Ceiling: 2800
Heat Index: 19°   Visibility: 10mi
Dew Point: 15°   Wind: 5mph
Humidity: 85%   Direction: 250°WSW
Pressure: 30.21"   Gusts: NA
Location:  42.23°N, 73.73°W
Report Text: KPSF 201154Z AUTO 25004KT 10SM OVC028 M07/M09 A3021 RMK AO2 SLP249 T10721094 11050 21089 53024
Loading
Personal Weather Stations






























Interactive Weather Map New forecast layout! Learn more

10-Day Weather Forecast

Advertisements
Track Severe Weather on mobile